ZMUB/ULN METAR and TAF weather

Enter ICAO airport designator
Station Type Date Time Source
ZMUB METAR 2021/08/05 05:30 UTC NOAA

ZMUB 050530Z VRB02MPS 8000NW FEW030TCU FEW033 22/10 Q1011 NOSIG RMK QFE651.2 47 NW MO


Station Type Date Time Source
ZMUB Decoded METAR 2021/08/05 05:30 UTC NOAA

Ulan-Bator, Mongolia (ZMUB) 47-51N 106-46E
Aug 05, 2021 - 01:30 AM EDT / 2021.08.05 0530 UTC
Wind: Variable at 4 MPH (4 KT):0
Visibility: 4 mile(s):0
Sky conditions: mostly clear
Weather: Towering cumulus clouds observed
Temperature: 71 F (22 C)
Dew Point: 50 F (10 C)
Relative Humidity: 46%
Pressure (altimeter): 29.85 in. Hg (1011 hPa)
ob: ZMUB 050530Z VRB02MPS 8000NW FEW030TCU FEW033 22/10 Q1011 NOSIG RMK QFE651.2 47 NW MO
cycle: 5

Station Type Date Time Source
ZMUB TAF 2021/08/05 06:39 UTC NOAA

TAF TAF ZMUB 050433Z 0506/0612 VRB02MPS 6000 FEW030CB SCT033 TX25/0507Z TN08/0522Z PROB30
TEMPO 0607/0612 VRB08MPS TSRA SCT027CB SCT030

Example: see airport list